createdAt,value
2022-08-08T00:07:08.876Z,26.6
2022-08-08T00:15:17.583Z,26.6
2022-08-08T00:21:43.777Z,26.6
2022-08-08T00:28:07.977Z,26.6
2022-08-08T00:38:04.012Z,26.5
2022-08-08T00:48:29.602Z,26.5
2022-08-08T00:55:54.298Z,26.4
2022-08-08T01:04:15.056Z,26.4
2022-08-08T01:11:40.932Z,26.4
2022-08-08T01:19:42.440Z,26.4
2022-08-08T01:28:34.757Z,26.4
2022-08-08T01:36:17.391Z,26.4
2022-08-08T01:42:52.858Z,26.3
2022-08-08T01:50:37.021Z,26.3
2022-08-08T17:20:05.916Z,27.4
2022-08-08T17:27:46.662Z,27.4
2022-08-08T17:38:12.288Z,27.4
2022-08-08T17:45:39.777Z,27.4
2022-08-08T17:51:51.628Z,27.4
2022-08-08T17:59:03.057Z,27.4
2022-08-08T18:06:42.985Z,27.3
2022-08-08T18:13:43.592Z,27.3
2022-08-08T18:23:06.776Z,27.3
2022-08-08T18:29:50.890Z,27.3
2022-08-08T18:37:04.756Z,27.3
2022-08-08T18:44:34.555Z,27.3
2022-08-08T18:52:58.950Z,27.3
2022-08-08T18:59:57.233Z,27.3
2022-08-08T19:07:38.864Z,27.3
2022-08-08T19:15:10.791Z,27.2
2022-08-08T19:22:39.302Z,27.3
2022-08-08T19:31:20.088Z,27.2
2022-08-08T19:39:13.856Z,27.2
2022-08-08T19:46:55.540Z,27.2
2022-08-08T19:54:09.234Z,27.2
2022-08-08T20:00:28.839Z,27.2
2022-08-08T20:10:12.821Z,27.2
2022-08-08T20:18:52.343Z,27.1
2022-08-08T20:25:24.562Z,27.1
2022-08-08T20:41:16.905Z,27.2
2022-08-08T20:48:42.699Z,27.1
2022-08-08T20:55:42.474Z,27.1
2022-08-08T21:02:42.846Z,27.1
2022-08-08T21:11:01.333Z,27.1
2022-08-08T21:18:36.130Z,27.1
2022-08-08T21:25:52.917Z,27.1
2022-08-08T21:33:49.525Z,27.1
2022-08-08T21:42:32.631Z,27.1
2022-08-08T21:55:24.108Z,27.1
2022-08-08T22:03:51.378Z,27.1
2022-08-08T22:10:18.048Z,27.1
2022-08-08T22:17:27.341Z,27.1
2022-08-08T22:24:28.628Z,27.1
2022-08-08T22:35:24.243Z,27.1
2022-08-08T22:43:22.283Z,27.1
2022-08-08T22:50:00.107Z,27
2022-08-08T22:59:07.707Z,27
2022-08-08T23:17:16.726Z,27
2022-08-08T23:23:29.540Z,27
2022-08-08T23:30:12.690Z,27
2022-08-08T23:38:18.526Z,27
2022-08-08T23:45:01.794Z,26.9
2022-08-08T23:56:50.415Z,27
